sensor_id;sensor_type;location;lat;lon;timestamp;P1;durP1;ratioP1;P2;durP2;ratioP2
4563;SDS011;2294;51.818;8.484;2023-11-21T00:01:32;9.20;;;5.80;;
4563;SDS011;2294;51.818;8.484;2023-11-21T00:03:59;11.07;;;5.37;;
4563;SDS011;2294;51.818;8.484;2023-11-21T00:06:28;13.47;;;4.90;;
4563;SDS011;2294;51.818;8.484;2023-11-21T00:08:55;6.30;;;4.20;;
4563;SDS011;2294;51.818;8.484;2023-11-21T00:11:23;12.73;;;5.00;;
4563;SDS011;2294;51.818;8.484;2023-11-21T00:13:50;7.73;;;5.17;;
4563;SDS011;2294;51.818;8.484;2023-11-21T00:16:17;7.67;;;4.87;;
4563;SDS011;2294;51.818;8.484;2023-11-21T00:18:44;11.40;;;5.23;;
4563;SDS011;2294;51.818;8.484;2023-11-21T00:21:12;9.07;;;5.33;;
4563;SDS011;2294;51.818;8.484;2023-11-21T00:23:41;8.70;;;6.53;;
4563;SDS011;2294;51.818;8.484;2023-11-21T00:26:08;9.33;;;5.83;;
4563;SDS011;2294;51.818;8.484;2023-11-21T00:28:35;8.50;;;5.77;;
4563;SDS011;2294;51.818;8.484;2023-11-21T00:31:02;7.20;;;4.80;;
4563;SDS011;2294;51.818;8.484;2023-11-21T00:33:30;8.50;;;5.80;;
4563;SDS011;2294;51.818;8.484;2023-11-21T00:35:57;6.67;;;4.40;;
4563;SDS011;2294;51.818;8.484;2023-11-21T00:38:25;6.63;;;5.00;;
4563;SDS011;2294;51.818;8.484;2023-11-21T00:40:54;8.90;;;4.97;;
4563;SDS011;2294;51.818;8.484;2023-11-21T00:43:21;6.40;;;4.83;;
4563;SDS011;2294;51.818;8.484;2023-11-21T00:45:49;9.30;;;5.20;;
4563;SDS011;2294;51.818;8.484;2023-11-21T00:48:16;12.50;;;5.43;;
4563;SDS011;2294;51.818;8.484;2023-11-21T00:50:44;8.63;;;4.97;;
4563;SDS011;2294;51.818;8.484;2023-11-21T00:53:11;7.37;;;5.23;;
4563;SDS011;2294;51.818;8.484;2023-11-21T00:55:38;10.73;;;5.60;;
4563;SDS011;2294;51.818;8.484;2023-11-21T00:58:07;9.30;;;5.47;;
4563;SDS011;2294;51.818;8.484;2023-11-21T01:00:35;8.27;;;5.97;;
4563;SDS011;2294;51.818;8.484;2023-11-21T01:03:04;8.07;;;5.23;;
4563;SDS011;2294;51.818;8.484;2023-11-21T01:05:32;10.20;;;6.00;;
4563;SDS011;2294;51.818;8.484;2023-11-21T01:08:00;9.10;;;5.13;;
4563;SDS011;2294;51.818;8.484;2023-11-21T01:10:27;7.10;;;5.50;;
4563;SDS011;2294;51.818;8.484;2023-11-21T01:12:55;10.00;;;5.77;;
4563;SDS011;2294;51.818;8.484;2023-11-21T01:15:24;9.20;;;5.70;;
4563;SDS011;2294;51.818;8.484;2023-11-21T01:17:52;9.37;;;6.40;;
4563;SDS011;2294;51.818;8.484;2023-11-21T01:20:19;9.67;;;6.40;;
4563;SDS011;2294;51.818;8.484;2023-11-21T01:22:46;7.60;;;5.80;;
4563;SDS011;2294;51.818;8.484;2023-11-21T01:25:14;19.03;;;6.60;;
4563;SDS011;2294;51.818;8.484;2023-11-21T01:27:41;12.67;;;6.30;;
4563;SDS011;2294;51.818;8.484;2023-11-21T01:30:09;9.37;;;6.60;;
4563;SDS011;2294;51.818;8.484;2023-11-21T01:32:37;15.23;;;6.60;;
4563;SDS011;2294;51.818;8.484;2023-11-21T01:35:05;12.13;;;6.63;;
4563;SDS011;2294;51.818;8.484;2023-11-21T01:37:33;8.33;;;6.40;;
4563;SDS011;2294;51.818;8.484;2023-11-21T01:40:01;12.27;;;6.50;;
4563;SDS011;2294;51.818;8.484;2023-11-21T01:42:30;11.30;;;6.37;;
4563;SDS011;2294;51.818;8.484;2023-11-21T01:44:58;12.37;;;6.27;;
4563;SDS011;2294;51.818;8.484;2023-11-21T01:47:25;10.60;;;6.20;;
4563;SDS011;2294;51.818;8.484;2023-11-21T01:49:53;12.80;;;6.53;;
4563;SDS011;2294;51.818;8.484;2023-11-21T01:52:21;9.63;;;6.50;;
4563;SDS011;2294;51.818;8.484;2023-11-21T01:54:48;9.80;;;6.47;;
4563;SDS011;2294;51.818;8.484;2023-11-21T01:57:15;8.83;;;6.30;;
4563;SDS011;2294;51.818;8.484;2023-11-21T01:59:42;12.20;;;6.73;;
4563;SDS011;2294;51.818;8.484;2023-11-21T02:02:10;11.90;;;6.37;;
4563;SDS011;2294;51.818;8.484;2023-11-21T02:04:37;8.27;;;6.57;;
4563;SDS011;2294;51.818;8.484;2023-11-21T02:07:06;10.50;;;6.20;;
4563;SDS011;2294;51.818;8.484;2023-11-21T02:09:33;17.40;;;6.50;;
4563;SDS011;2294;51.818;8.484;2023-11-21T02:12:03;9.77;;;6.73;;
4563;SDS011;2294;51.818;8.484;2023-11-21T02:14:30;10.60;;;6.63;;
4563;SDS011;2294;51.818;8.484;2023-11-21T02:16:58;12.03;;;6.57;;
4563;SDS011;2294;51.818;8.484;2023-11-21T02:19:26;11.10;;;6.57;;
4563;SDS011;2294;51.818;8.484;2023-11-21T02:21:55;10.53;;;6.93;;
4563;SDS011;2294;51.818;8.484;2023-11-21T02:24:26;10.50;;;6.63;;
4563;SDS011;2294;51.818;8.484;2023-11-21T02:26:53;14.80;;;6.30;;
4563;SDS011;2294;51.818;8.484;2023-11-21T02:29:21;10.03;;;6.70;;
4563;SDS011;2294;51.818;8.484;2023-11-21T02:31:52;10.30;;;6.93;;
4563;SDS011;2294;51.818;8.484;2023-11-21T02:34:20;10.60;;;6.60;;
4563;SDS011;2294;51.818;8.484;2023-11-21T02:36:48;10.83;;;6.27;;
4563;SDS011;2294;51.818;8.484;2023-11-21T02:39:16;7.93;;;5.63;;
4563;SDS011;2294;51.818;8.484;2023-11-21T02:41:48;10.03;;;7.50;;
4563;SDS011;2294;51.818;8.484;2023-11-21T02:44:15;12.37;;;7.63;;
4563;SDS011;2294;51.818;8.484;2023-11-21T02:46:43;13.70;;;7.50;;
4563;SDS011;2294;51.818;8.484;2023-11-21T02:49:10;11.10;;;6.87;;
4563;SDS011;2294;51.818;8.484;2023-11-21T02:51:37;12.30;;;6.53;;
4563;SDS011;2294;51.818;8.484;2023-11-21T02:54:05;11.70;;;7.07;;
4563;SDS011;2294;51.818;8.484;2023-11-21T02:56:33;9.47;;;6.60;;
4563;SDS011;2294;51.818;8.484;2023-11-21T02:59:01;10.20;;;6.23;;
4563;SDS011;2294;51.818;8.484;2023-11-21T03:01:30;9.10;;;6.30;;
4563;SDS011;2294;51.818;8.484;2023-11-21T03:03:57;13.83;;;7.57;;
4563;SDS011;2294;51.818;8.484;2023-11-21T03:06:24;11.93;;;7.90;;
4563;SDS011;2294;51.818;8.484;2023-11-21T03:08:52;12.80;;;7.30;;
4563;SDS011;2294;51.818;8.484;2023-11-21T03:11:19;18.50;;;7.43;;
4563;SDS011;2294;51.818;8.484;2023-11-21T03:13:46;9.20;;;7.17;;
4563;SDS011;2294;51.818;8.484;2023-11-21T03:16:15;12.53;;;7.07;;
4563;SDS011;2294;51.818;8.484;2023-11-21T03:18:44;16.80;;;7.07;;
4563;SDS011;2294;51.818;8.484;2023-11-21T03:21:11;13.07;;;8.07;;
4563;SDS011;2294;51.818;8.484;2023-11-21T03:23:38;12.70;;;6.77;;
4563;SDS011;2294;51.818;8.484;2023-11-21T03:26:06;10.87;;;7.57;;
4563;SDS011;2294;51.818;8.484;2023-11-21T03:28:34;14.33;;;7.73;;
4563;SDS011;2294;51.818;8.484;2023-11-21T03:31:01;9.37;;;6.80;;
4563;SDS011;2294;51.818;8.484;2023-11-21T03:33:29;10.20;;;7.10;;
4563;SDS011;2294;51.818;8.484;2023-11-21T03:35:56;11.90;;;8.33;;
4563;SDS011;2294;51.818;8.484;2023-11-21T03:38:23;10.93;;;7.63;;
4563;SDS011;2294;51.818;8.484;2023-11-21T03:40:51;13.97;;;7.00;;
4563;SDS011;2294;51.818;8.484;2023-11-21T03:43:18;12.30;;;8.47;;
4563;SDS011;2294;51.818;8.484;2023-11-21T03:45:45;14.50;;;8.30;;
4563;SDS011;2294;51.818;8.484;2023-11-21T03:48:13;14.93;;;7.90;;
4563;SDS011;2294;51.818;8.484;2023-11-21T03:50:42;12.83;;;8.07;;
4563;SDS011;2294;51.818;8.484;2023-11-21T03:53:10;13.10;;;7.97;;
4563;SDS011;2294;51.818;8.484;2023-11-21T03:55:37;11.83;;;7.73;;
4563;SDS011;2294;51.818;8.484;2023-11-21T03:58:04;18.77;;;9.87;;
4563;SDS011;2294;51.818;8.484;2023-11-21T04:00:31;15.10;;;8.97;;
4563;SDS011;2294;51.818;8.484;2023-11-21T04:02:58;14.40;;;8.27;;
4563;SDS011;2294;51.818;8.484;2023-11-21T04:05:25;16.30;;;8.40;;
4563;SDS011;2294;51.818;8.484;2023-11-21T04:07:54;12.37;;;9.20;;
4563;SDS011;2294;51.818;8.484;2023-11-21T04:10:21;10.60;;;7.93;;
4563;SDS011;2294;51.818;8.484;2023-11-21T04:12:48;14.17;;;8.17;;
4563;SDS011;2294;51.818;8.484;2023-11-21T04:15:15;12.80;;;7.87;;
4563;SDS011;2294;51.818;8.484;2023-11-21T04:17:42;15.53;;;8.57;;
4563;SDS011;2294;51.818;8.484;2023-11-21T04:20:10;13.53;;;8.90;;
4563;SDS011;2294;51.818;8.484;2023-11-21T04:22:38;12.73;;;7.87;;
4563;SDS011;2294;51.818;8.484;2023-11-21T04:25:10;16.27;;;7.90;;
4563;SDS011;2294;51.818;8.484;2023-11-21T04:27:38;18.37;;;8.73;;
4563;SDS011;2294;51.818;8.484;2023-11-21T04:30:05;19.47;;;9.30;;
4563;SDS011;2294;51.818;8.484;2023-11-21T04:32:35;15.27;;;8.73;;
4563;SDS011;2294;51.818;8.484;2023-11-21T04:35:02;18.30;;;9.00;;
4563;SDS011;2294;51.818;8.484;2023-11-21T04:37:29;14.47;;;8.87;;
4563;SDS011;2294;51.818;8.484;2023-11-21T04:39:56;17.10;;;9.60;;
4563;SDS011;2294;51.818;8.484;2023-11-21T04:42:25;12.03;;;8.50;;
4563;SDS011;2294;51.818;8.484;2023-11-21T04:44:54;16.60;;;8.50;;
4563;SDS011;2294;51.818;8.484;2023-11-21T04:47:21;21.40;;;9.67;;
4563;SDS011;2294;51.818;8.484;2023-11-21T04:49:48;12.40;;;8.83;;
4563;SDS011;2294;51.818;8.484;2023-11-21T04:52:15;17.77;;;10.43;;
4563;SDS011;2294;51.818;8.484;2023-11-21T04:54:43;15.50;;;9.40;;
4563;SDS011;2294;51.818;8.484;2023-11-21T04:57:10;15.80;;;9.77;;
4563;SDS011;2294;51.818;8.484;2023-11-21T04:59:38;15.07;;;9.13;;
4563;SDS011;2294;51.818;8.484;2023-11-21T05:02:05;15.33;;;9.33;;
4563;SDS011;2294;51.818;8.484;2023-11-21T05:04:33;12.97;;;7.57;;
4563;SDS011;2294;51.818;8.484;2023-11-21T05:07:00;12.67;;;8.57;;
4563;SDS011;2294;51.818;8.484;2023-11-21T05:09:27;13.17;;;8.33;;
4563;SDS011;2294;51.818;8.484;2023-11-21T05:11:57;14.17;;;8.17;;
4563;SDS011;2294;51.818;8.484;2023-11-21T05:14:25;11.70;;;8.03;;
4563;SDS011;2294;51.818;8.484;2023-11-21T05:16:54;14.33;;;9.90;;
4563;SDS011;2294;51.818;8.484;2023-11-21T05:19:21;14.57;;;8.67;;
4563;SDS011;2294;51.818;8.484;2023-11-21T05:21:48;20.20;;;8.97;;
4563;SDS011;2294;51.818;8.484;2023-11-21T05:24:15;12.13;;;8.67;;
4563;SDS011;2294;51.818;8.484;2023-11-21T05:26:43;14.37;;;8.87;;
4563;SDS011;2294;51.818;8.484;2023-11-21T05:29:10;14.20;;;8.90;;
4563;SDS011;2294;51.818;8.484;2023-11-21T05:31:37;14.70;;;10.07;;
4563;SDS011;2294;51.818;8.484;2023-11-21T05:34:05;15.53;;;9.37;;
4563;SDS011;2294;51.818;8.484;2023-11-21T05:36:32;18.43;;;9.63;;
4563;SDS011;2294;51.818;8.484;2023-11-21T05:39:00;15.43;;;9.67;;
4563;SDS011;2294;51.818;8.484;2023-11-21T05:41:28;20.43;;;8.83;;
4563;SDS011;2294;51.818;8.484;2023-11-21T05:43:55;16.27;;;9.60;;
4563;SDS011;2294;51.818;8.484;2023-11-21T05:46:22;11.47;;;8.80;;
4563;SDS011;2294;51.818;8.484;2023-11-21T05:48:50;16.70;;;9.37;;
4563;SDS011;2294;51.818;8.484;2023-11-21T05:51:18;12.50;;;8.43;;
4563;SDS011;2294;51.818;8.484;2023-11-21T05:53:45;20.17;;;9.13;;
4563;SDS011;2294;51.818;8.484;2023-11-21T05:56:13;14.87;;;9.30;;
4563;SDS011;2294;51.818;8.484;2023-11-21T05:58:40;15.67;;;9.63;;
4563;SDS011;2294;51.818;8.484;2023-11-21T06:01:07;17.93;;;10.53;;
4563;SDS011;2294;51.818;8.484;2023-11-21T06:03:37;15.67;;;9.90;;
4563;SDS011;2294;51.818;8.484;2023-11-21T06:06:05;24.60;;;10.50;;
4563;SDS011;2294;51.818;8.484;2023-11-21T06:08:33;12.03;;;8.60;;
4563;SDS011;2294;51.818;8.484;2023-11-21T06:11:00;16.00;;;9.00;;
4563;SDS011;2294;51.818;8.484;2023-11-21T06:13:28;14.27;;;8.30;;
4563;SDS011;2294;51.818;8.484;2023-11-21T06:15:55;14.47;;;9.50;;
4563;SDS011;2294;51.818;8.484;2023-11-21T06:18:23;13.17;;;8.50;;
4563;SDS011;2294;51.818;8.484;2023-11-21T06:20:50;15.13;;;9.80;;
4563;SDS011;2294;51.818;8.484;2023-11-21T06:23:18;18.30;;;11.43;;
4563;SDS011;2294;51.818;8.484;2023-11-21T06:25:46;16.70;;;10.00;;
4563;SDS011;2294;51.818;8.484;2023-11-21T06:28:13;17.30;;;11.17;;
4563;SDS011;2294;51.818;8.484;2023-11-21T06:30:42;16.07;;;10.27;;
4563;SDS011;2294;51.818;8.484;2023-11-21T06:33:10;15.60;;;10.37;;
4563;SDS011;2294;51.818;8.484;2023-11-21T06:35:37;22.87;;;11.67;;
4563;SDS011;2294;51.818;8.484;2023-11-21T06:38:05;21.97;;;11.33;;
4563;SDS011;2294;51.818;8.484;2023-11-21T06:40:31;24.50;;;11.80;;
4563;SDS011;2294;51.818;8.484;2023-11-21T06:43:00;22.20;;;11.57;;
4563;SDS011;2294;51.818;8.484;2023-11-21T06:45:27;19.77;;;12.30;;
4563;SDS011;2294;51.818;8.484;2023-11-21T06:47:54;19.77;;;11.17;;
4563;SDS011;2294;51.818;8.484;2023-11-21T06:50:21;22.80;;;12.77;;
4563;SDS011;2294;51.818;8.484;2023-11-21T06:52:48;19.90;;;11.53;;
4563;SDS011;2294;51.818;8.484;2023-11-21T06:55:15;19.57;;;11.23;;
4563;SDS011;2294;51.818;8.484;2023-11-21T06:57:42;20.13;;;11.17;;
4563;SDS011;2294;51.818;8.484;2023-11-21T07:00:11;29.50;;;13.10;;
4563;SDS011;2294;51.818;8.484;2023-11-21T07:02:38;27.73;;;13.50;;
4563;SDS011;2294;51.818;8.484;2023-11-21T07:05:06;41.33;;;14.63;;
4563;SDS011;2294;51.818;8.484;2023-11-21T07:07:33;31.03;;;14.93;;
4563;SDS011;2294;51.818;8.484;2023-11-21T07:10:02;32.40;;;14.43;;
4563;SDS011;2294;51.818;8.484;2023-11-21T07:12:30;28.10;;;13.03;;
4563;SDS011;2294;51.818;8.484;2023-11-21T07:14:58;28.13;;;14.10;;
4563;SDS011;2294;51.818;8.484;2023-11-21T07:17:27;41.73;;;14.93;;
4563;SDS011;2294;51.818;8.484;2023-11-21T07:19:54;36.63;;;17.37;;
4563;SDS011;2294;51.818;8.484;2023-11-21T07:22:21;30.43;;;15.50;;
4563;SDS011;2294;51.818;8.484;2023-11-21T07:24:49;25.50;;;13.83;;
4563;SDS011;2294;51.818;8.484;2023-11-21T07:27:16;32.60;;;14.57;;
4563;SDS011;2294;51.818;8.484;2023-11-21T07:29:44;27.70;;;15.20;;
4563;SDS011;2294;51.818;8.484;2023-11-21T07:32:11;28.87;;;13.97;;
4563;SDS011;2294;51.818;8.484;2023-11-21T07:34:41;31.83;;;16.90;;
4563;SDS011;2294;51.818;8.484;2023-11-21T07:37:08;31.10;;;15.83;;
4563;SDS011;2294;51.818;8.484;2023-11-21T07:39:35;28.77;;;15.50;;
4563;SDS011;2294;51.818;8.484;2023-11-21T07:42:02;27.07;;;15.70;;
4563;SDS011;2294;51.818;8.484;2023-11-21T07:44:30;26.50;;;15.80;;
4563;SDS011;2294;51.818;8.484;2023-11-21T07:46:57;32.97;;;16.37;;
4563;SDS011;2294;51.818;8.484;2023-11-21T07:49:24;39.53;;;17.37;;
4563;SDS011;2294;51.818;8.484;2023-11-21T07:51:53;49.17;;;24.60;;
4563;SDS011;2294;51.818;8.484;2023-11-21T07:54:20;51.63;;;21.83;;
4563;SDS011;2294;51.818;8.484;2023-11-21T07:56:47;37.43;;;18.37;;
4563;SDS011;2294;51.818;8.484;2023-11-21T07:59:14;50.97;;;20.10;;
4563;SDS011;2294;51.818;8.484;2023-11-21T08:01:43;50.17;;;22.83;;
4563;SDS011;2294;51.818;8.484;2023-11-21T08:04:11;51.43;;;22.00;;
4563;SDS011;2294;51.818;8.484;2023-11-21T08:06:38;41.90;;;21.40;;
4563;SDS011;2294;51.818;8.484;2023-11-21T08:09:08;43.00;;;21.90;;
4563;SDS011;2294;51.818;8.484;2023-11-21T08:11:37;38.07;;;19.80;;
4563;SDS011;2294;51.818;8.484;2023-11-21T08:14:04;41.27;;;21.63;;
4563;SDS011;2294;51.818;8.484;2023-11-21T08:16:31;33.40;;;20.50;;
4563;SDS011;2294;51.818;8.484;2023-11-21T08:18:58;44.50;;;18.87;;
4563;SDS011;2294;51.818;8.484;2023-11-21T08:21:26;41.27;;;20.27;;
4563;SDS011;2294;51.818;8.484;2023-11-21T08:23:54;39.37;;;20.37;;
4563;SDS011;2294;51.818;8.484;2023-11-21T08:26:23;42.53;;;19.47;;
4563;SDS011;2294;51.818;8.484;2023-11-21T08:28:50;35.43;;;17.93;;
4563;SDS011;2294;51.818;8.484;2023-11-21T08:31:23;44.20;;;19.30;;
4563;SDS011;2294;51.818;8.484;2023-11-21T08:33:50;35.57;;;18.00;;
4563;SDS011;2294;51.818;8.484;2023-11-21T08:36:20;38.80;;;19.17;;
4563;SDS011;2294;51.818;8.484;2023-11-21T08:38:48;69.57;;;31.57;;
4563;SDS011;2294;51.818;8.484;2023-11-21T08:41:17;67.43;;;25.97;;
4563;SDS011;2294;51.818;8.484;2023-11-21T08:43:47;49.93;;;23.63;;
4563;SDS011;2294;51.818;8.484;2023-11-21T08:46:14;46.00;;;21.40;;
4563;SDS011;2294;51.818;8.484;2023-11-21T08:48:43;49.07;;;21.30;;
4563;SDS011;2294;51.818;8.484;2023-11-21T08:51:10;38.27;;;19.53;;
4563;SDS011;2294;51.818;8.484;2023-11-21T08:53:39;43.30;;;18.30;;
4563;SDS011;2294;51.818;8.484;2023-11-21T08:56:06;33.63;;;17.07;;
4563;SDS011;2294;51.818;8.484;2023-11-21T08:58:34;38.23;;;17.80;;
4563;SDS011;2294;51.818;8.484;2023-11-21T09:01:04;41.50;;;18.20;;
4563;SDS011;2294;51.818;8.484;2023-11-21T09:03:32;32.57;;;14.73;;
4563;SDS011;2294;51.818;8.484;2023-11-21T09:05:59;36.10;;;16.30;;
4563;SDS011;2294;51.818;8.484;2023-11-21T09:08:27;30.83;;;15.20;;
4563;SDS011;2294;51.818;8.484;2023-11-21T09:10:54;31.40;;;16.10;;
4563;SDS011;2294;51.818;8.484;2023-11-21T09:13:22;31.70;;;14.67;;
4563;SDS011;2294;51.818;8.484;2023-11-21T09:15:50;31.13;;;13.63;;
4563;SDS011;2294;51.818;8.484;2023-11-21T09:18:18;35.03;;;14.40;;
4563;SDS011;2294;51.818;8.484;2023-11-21T09:20:45;30.00;;;14.23;;
4563;SDS011;2294;51.818;8.484;2023-11-21T09:23:12;26.63;;;14.07;;
4563;SDS011;2294;51.818;8.484;2023-11-21T09:25:40;33.30;;;14.17;;
4563;SDS011;2294;51.818;8.484;2023-11-21T09:28:11;37.60;;;15.03;;
4563;SDS011;2294;51.818;8.484;2023-11-21T09:30:38;35.70;;;15.13;;
4563;SDS011;2294;51.818;8.484;2023-11-21T09:33:05;26.23;;;13.70;;
4563;SDS011;2294;51.818;8.484;2023-11-21T09:35:37;26.77;;;14.73;;
4563;SDS011;2294;51.818;8.484;2023-11-21T09:38:04;30.17;;;14.77;;
4563;SDS011;2294;51.818;8.484;2023-11-21T09:40:35;32.80;;;15.47;;
4563;SDS011;2294;51.818;8.484;2023-11-21T09:43:04;38.07;;;14.93;;
4563;SDS011;2294;51.818;8.484;2023-11-21T09:45:34;34.00;;;14.20;;
4563;SDS011;2294;51.818;8.484;2023-11-21T09:48:02;27.43;;;14.47;;
4563;SDS011;2294;51.818;8.484;2023-11-21T09:50:30;33.03;;;15.57;;
4563;SDS011;2294;51.818;8.484;2023-11-21T09:53:02;30.50;;;15.67;;
4563;SDS011;2294;51.818;8.484;2023-11-21T09:55:32;27.80;;;14.40;;
4563;SDS011;2294;51.818;8.484;2023-11-21T09:58:02;30.67;;;13.90;;
4563;SDS011;2294;51.818;8.484;2023-11-21T10:00:30;32.47;;;15.37;;
4563;SDS011;2294;51.818;8.484;2023-11-21T10:02:58;35.87;;;15.83;;
4563;SDS011;2294;51.818;8.484;2023-11-21T10:05:25;31.90;;;16.00;;
4563;SDS011;2294;51.818;8.484;2023-11-21T10:07:53;30.47;;;14.50;;
4563;SDS011;2294;51.818;8.484;2023-11-21T10:10:24;35.50;;;16.27;;
4563;SDS011;2294;51.818;8.484;2023-11-21T10:12:54;33.30;;;15.30;;
4563;SDS011;2294;51.818;8.484;2023-11-21T10:15:22;35.60;;;15.60;;
4563;SDS011;2294;51.818;8.484;2023-11-21T10:17:50;45.13;;;16.57;;
4563;SDS011;2294;51.818;8.484;2023-11-21T10:20:19;32.87;;;16.10;;
4563;SDS011;2294;51.818;8.484;2023-11-21T10:22:46;43.67;;;15.50;;
4563;SDS011;2294;51.818;8.484;2023-11-21T10:25:13;45.67;;;15.63;;
4563;SDS011;2294;51.818;8.484;2023-11-21T10:27:43;38.70;;;15.30;;
4563;SDS011;2294;51.818;8.484;2023-11-21T10:30:13;38.27;;;16.47;;
4563;SDS011;2294;51.818;8.484;2023-11-21T10:32:41;33.40;;;13.57;;
4563;SDS011;2294;51.818;8.484;2023-11-21T10:35:08;22.03;;;12.10;;
4563;SDS011;2294;51.818;8.484;2023-11-21T10:37:36;36.00;;;14.47;;
4563;SDS011;2294;51.818;8.484;2023-11-21T10:40:05;29.03;;;14.23;;
4563;SDS011;2294;51.818;8.484;2023-11-21T10:42:32;32.40;;;12.90;;
4563;SDS011;2294;51.818;8.484;2023-11-21T10:45:00;29.13;;;14.37;;
4563;SDS011;2294;51.818;8.484;2023-11-21T10:47:29;28.47;;;12.83;;
4563;SDS011;2294;51.818;8.484;2023-11-21T10:49:58;30.60;;;13.50;;
4563;SDS011;2294;51.818;8.484;2023-11-21T10:52:27;24.87;;;11.37;;
4563;SDS011;2294;51.818;8.484;2023-11-21T10:54:54;26.47;;;11.70;;
4563;SDS011;2294;51.818;8.484;2023-11-21T10:57:24;14.87;;;8.23;;
4563;SDS011;2294;51.818;8.484;2023-11-21T10:59:51;13.10;;;6.80;;
4563;SDS011;2294;51.818;8.484;2023-11-21T11:02:23;15.37;;;6.90;;
4563;SDS011;2294;51.818;8.484;2023-11-21T11:04:53;14.63;;;6.60;;
4563;SDS011;2294;51.818;8.484;2023-11-21T11:07:21;13.47;;;7.00;;
4563;SDS011;2294;51.818;8.484;2023-11-21T11:09:52;10.30;;;5.97;;
4563;SDS011;2294;51.818;8.484;2023-11-21T11:12:20;8.83;;;5.23;;
4563;SDS011;2294;51.818;8.484;2023-11-21T11:14:47;8.13;;;5.00;;
4563;SDS011;2294;51.818;8.484;2023-11-21T11:17:15;10.33;;;5.67;;
4563;SDS011;2294;51.818;8.484;2023-11-21T11:19:45;8.57;;;4.50;;
4563;SDS011;2294;51.818;8.484;2023-11-21T11:22:18;10.80;;;4.90;;
4563;SDS011;2294;51.818;8.484;2023-11-21T11:24:50;6.63;;;4.10;;
4563;SDS011;2294;51.818;8.484;2023-11-21T11:27:24;9.77;;;4.53;;
4563;SDS011;2294;51.818;8.484;2023-11-21T11:29:55;9.03;;;4.60;;
4563;SDS011;2294;51.818;8.484;2023-11-21T11:32:27;10.73;;;4.23;;
4563;SDS011;2294;51.818;8.484;2023-11-21T11:35:04;6.33;;;3.43;;
4563;SDS011;2294;51.818;8.484;2023-11-21T11:37:33;6.57;;;3.73;;
4563;SDS011;2294;51.818;8.484;2023-11-21T11:40:01;8.50;;;4.67;;
4563;SDS011;2294;51.818;8.484;2023-11-21T11:42:32;7.77;;;4.23;;
4563;SDS011;2294;51.818;8.484;2023-11-21T11:44:59;6.60;;;3.37;;
4563;SDS011;2294;51.818;8.484;2023-11-21T11:47:31;4.70;;;3.20;;
4563;SDS011;2294;51.818;8.484;2023-11-21T11:50:06;5.40;;;3.90;;
4563;SDS011;2294;51.818;8.484;2023-11-21T11:52:39;4.20;;;3.03;;
4563;SDS011;2294;51.818;8.484;2023-11-21T11:55:06;5.97;;;3.50;;
4563;SDS011;2294;51.818;8.484;2023-11-21T11:57:36;5.93;;;3.40;;
4563;SDS011;2294;51.818;8.484;2023-11-21T12:02:51;6.50;;;3.40;;
4563;SDS011;2294;51.818;8.484;2023-11-21T12:05:20;7.53;;;2.97;;
4563;SDS011;2294;51.818;8.484;2023-11-21T12:07:49;4.50;;;2.83;;
4563;SDS011;2294;51.818;8.484;2023-11-21T12:10:18;6.40;;;3.30;;
4563;SDS011;2294;51.818;8.484;2023-11-21T12:12:46;5.90;;;3.30;;
4563;SDS011;2294;51.818;8.484;2023-11-21T12:15:14;6.00;;;4.37;;
4563;SDS011;2294;51.818;8.484;2023-11-21T12:17:41;6.17;;;4.00;;
4563;SDS011;2294;51.818;8.484;2023-11-21T12:20:10;6.37;;;3.97;;
4563;SDS011;2294;51.818;8.484;2023-11-21T12:22:45;7.50;;;3.77;;
4563;SDS011;2294;51.818;8.484;2023-11-21T12:25:15;5.40;;;3.67;;
4563;SDS011;2294;51.818;8.484;2023-11-21T12:27:43;3.53;;;2.47;;
4563;SDS011;2294;51.818;8.484;2023-11-21T12:30:12;5.30;;;3.37;;
4563;SDS011;2294;51.818;8.484;2023-11-21T12:32:42;8.50;;;5.00;;
4563;SDS011;2294;51.818;8.484;2023-11-21T12:35:11;7.43;;;5.00;;
4563;SDS011;2294;51.818;8.484;2023-11-21T12:37:39;10.37;;;6.20;;
4563;SDS011;2294;51.818;8.484;2023-11-21T12:40:09;13.13;;;7.00;;
4563;SDS011;2294;51.818;8.484;2023-11-21T12:42:40;8.57;;;5.63;;
4563;SDS011;2294;51.818;8.484;2023-11-21T12:45:09;10.30;;;5.37;;
4563;SDS011;2294;51.818;8.484;2023-11-21T12:47:40;10.50;;;6.40;;
4563;SDS011;2294;51.818;8.484;2023-11-21T12:50:08;11.37;;;6.27;;
4563;SDS011;2294;51.818;8.484;2023-11-21T12:52:39;17.43;;;7.60;;
4563;SDS011;2294;51.818;8.484;2023-11-21T12:55:07;12.87;;;6.80;;
4563;SDS011;2294;51.818;8.484;2023-11-21T12:57:36;15.40;;;7.40;;
4563;SDS011;2294;51.818;8.484;2023-11-21T13:00:03;12.63;;;7.33;;
4563;SDS011;2294;51.818;8.484;2023-11-21T13:02:37;13.80;;;8.00;;
4563;SDS011;2294;51.818;8.484;2023-11-21T13:05:07;14.90;;;8.37;;
4563;SDS011;2294;51.818;8.484;2023-11-21T13:07:43;15.73;;;7.90;;
4563;SDS011;2294;51.818;8.484;2023-11-21T13:10:12;18.37;;;8.53;;
4563;SDS011;2294;51.818;8.484;2023-11-21T13:12:43;9.63;;;5.60;;
4563;SDS011;2294;51.818;8.484;2023-11-21T13:15:13;14.20;;;9.27;;
4563;SDS011;2294;51.818;8.484;2023-11-21T13:17:42;16.93;;;9.27;;
4563;SDS011;2294;51.818;8.484;2023-11-21T13:20:10;17.60;;;9.67;;
4563;SDS011;2294;51.818;8.484;2023-11-21T13:22:44;20.70;;;10.67;;
4563;SDS011;2294;51.818;8.484;2023-11-21T13:25:11;17.90;;;9.43;;
4563;SDS011;2294;51.818;8.484;2023-11-21T13:27:39;19.57;;;10.33;;
4563;SDS011;2294;51.818;8.484;2023-11-21T13:30:09;19.43;;;10.90;;
4563;SDS011;2294;51.818;8.484;2023-11-21T13:32:40;20.17;;;8.57;;
4563;SDS011;2294;51.818;8.484;2023-11-21T13:35:07;14.70;;;8.30;;
4563;SDS011;2294;51.818;8.484;2023-11-21T13:37:40;11.67;;;7.13;;
4563;SDS011;2294;51.818;8.484;2023-11-21T13:40:10;12.53;;;7.97;;
4563;SDS011;2294;51.818;8.484;2023-11-21T13:42:40;16.13;;;8.20;;
4563;SDS011;2294;51.818;8.484;2023-11-21T13:45:09;39.27;;;16.23;;
4563;SDS011;2294;51.818;8.484;2023-11-21T13:47:37;76.60;;;34.17;;
4563;SDS011;2294;51.818;8.484;2023-11-21T13:50:05;20.17;;;11.00;;
4563;SDS011;2294;51.818;8.484;2023-11-21T13:52:42;30.00;;;17.10;;
4563;SDS011;2294;51.818;8.484;2023-11-21T13:55:10;13.13;;;8.20;;
4563;SDS011;2294;51.818;8.484;2023-11-21T13:57:40;16.00;;;8.20;;
4563;SDS011;2294;51.818;8.484;2023-11-21T14:00:12;21.20;;;11.73;;
4563;SDS011;2294;51.818;8.484;2023-11-21T14:03:00;9.30;;;5.67;;
4563;SDS011;2294;51.818;8.484;2023-11-21T14:05:33;14.10;;;7.50;;
4563;SDS011;2294;51.818;8.484;2023-11-21T14:08:00;14.60;;;7.40;;
4563;SDS011;2294;51.818;8.484;2023-11-21T14:10:30;13.90;;;8.10;;
4563;SDS011;2294;51.818;8.484;2023-11-21T14:13:05;15.80;;;8.87;;
4563;SDS011;2294;51.818;8.484;2023-11-21T14:15:33;14.97;;;9.10;;
4563;SDS011;2294;51.818;8.484;2023-11-21T14:18:06;13.73;;;8.97;;
4563;SDS011;2294;51.818;8.484;2023-11-21T14:20:35;12.77;;;6.37;;
4563;SDS011;2294;51.818;8.484;2023-11-21T14:23:04;13.90;;;8.00;;
4563;SDS011;2294;51.818;8.484;2023-11-21T14:25:31;11.47;;;7.63;;
4563;SDS011;2294;51.818;8.484;2023-11-21T14:27:59;11.10;;;6.40;;
4563;SDS011;2294;51.818;8.484;2023-11-21T14:30:28;10.27;;;6.83;;
4563;SDS011;2294;51.818;8.484;2023-11-21T14:32:58;14.57;;;8.87;;
4563;SDS011;2294;51.818;8.484;2023-11-21T14:35:26;11.57;;;6.60;;
4563;SDS011;2294;51.818;8.484;2023-11-21T14:37:55;11.80;;;6.10;;
4563;SDS011;2294;51.818;8.484;2023-11-21T14:40:23;14.53;;;7.30;;
4563;SDS011;2294;51.818;8.484;2023-11-21T14:42:50;11.40;;;6.27;;
4563;SDS011;2294;51.818;8.484;2023-11-21T14:45:19;11.30;;;6.43;;
4563;SDS011;2294;51.818;8.484;2023-11-21T14:47:48;11.20;;;6.47;;
4563;SDS011;2294;51.818;8.484;2023-11-21T14:50:21;12.53;;;6.73;;
4563;SDS011;2294;51.818;8.484;2023-11-21T14:53:05;12.37;;;7.07;;
4563;SDS011;2294;51.818;8.484;2023-11-21T14:55:33;9.47;;;6.00;;
4563;SDS011;2294;51.818;8.484;2023-11-21T14:58:16;7.80;;;4.90;;
4563;SDS011;2294;51.818;8.484;2023-11-21T15:00:51;7.67;;;5.17;;
4563;SDS011;2294;51.818;8.484;2023-11-21T15:03:22;9.10;;;5.47;;
4563;SDS011;2294;51.818;8.484;2023-11-21T15:06:09;9.33;;;6.00;;
4563;SDS011;2294;51.818;8.484;2023-11-21T15:08:52;25.03;;;14.03;;
4563;SDS011;2294;51.818;8.484;2023-11-21T15:11:24;14.77;;;7.07;;